Terminal Aerodrome Forecast
Issued by NWS Bismarck, ND

Home | Current Version | Previous Version | Text Only | Print | Product List | Glossary Off
Versions: 1 2 3 4 5 6 7 8 9 10 11 12 13 14

000
FTUS43 KBIS 150527
TAFISN
TAF
KISN 150527Z 1506/1606 22007KT P6SM BKN080 BKN200
     FM151300 26006KT P6SM FEW080 SCT150 WS020/31030KT
     FM151600 28014G22KT P6SM SKC
     FM160200 23006KT P6SM FEW130 FEW250=

USA.gov is the U.S. government's official web portal to all federal, state and local government web resources and services.